createdAt,value
2018-03-18T00:00:25.336Z,59.60
2018-03-18T00:02:54.574Z,59.80
2018-03-18T00:05:23.074Z,58.30
2018-03-18T00:07:51.157Z,57.60
2018-03-18T00:10:18.901Z,58.80
2018-03-18T00:12:46.586Z,58.70
2018-03-18T00:15:15.642Z,60.20
2018-03-18T00:17:43.404Z,59.30
2018-03-18T00:20:11.890Z,58.80
2018-03-18T00:22:40.438Z,59.60
2018-03-18T00:25:08.638Z,60.00
2018-03-18T00:27:37.174Z,60.00
2018-03-18T00:30:05.748Z,59.30
2018-03-18T00:32:33.404Z,59.20
2018-03-18T00:35:01.078Z,59.60
2018-03-18T00:37:29.190Z,59.30
2018-03-18T00:39:57.334Z,59.90
2018-03-18T00:42:25.385Z,59.70
2018-03-18T00:44:53.095Z,58.30
2018-03-18T00:47:21.153Z,57.70
2018-03-18T00:49:49.254Z,59.00
2018-03-18T00:52:23.827Z,59.30
2018-03-18T00:54:53.054Z,60.00
2018-03-18T01:14:38.988Z,61.00
2018-03-18T01:17:06.714Z,60.00
2018-03-18T01:19:35.146Z,60.50
2018-03-18T01:22:02.832Z,60.60
2018-03-18T01:24:30.474Z,60.60
2018-03-18T01:26:58.267Z,59.60
2018-03-18T01:29:25.924Z,59.50
2018-03-18T01:31:54.456Z,59.90
2018-03-18T01:34:22.169Z,59.90
2018-03-18T01:36:50.680Z,60.10
2018-03-18T01:39:19.745Z,59.70
2018-03-18T01:41:47.467Z,59.40
2018-03-18T01:44:15.261Z,58.90
2018-03-18T01:46:42.931Z,59.10
2018-03-18T01:49:10.656Z,59.30
2018-03-18T01:51:38.291Z,59.80
2018-03-18T01:54:06.014Z,60.20
2018-03-18T01:56:33.766Z,58.70
2018-03-18T01:59:01.472Z,59.10
2018-03-18T02:01:29.130Z,59.70
2018-03-18T02:03:57.715Z,59.20
2018-03-18T02:06:25.385Z,58.90
2018-03-18T02:08:53.153Z,59.20
2018-03-18T02:11:21.286Z,59.30
2018-03-18T02:13:48.939Z,60.10
2018-03-18T02:16:16.568Z,59.40
2018-03-18T02:18:44.286Z,58.00
2018-03-18T02:21:13.675Z,58.90
2018-03-18T02:23:41.448Z,58.20
2018-03-18T02:26:09.089Z,58.60
2018-03-18T02:28:36.849Z,58.30
2018-03-18T02:31:05.335Z,58.30
2018-03-18T02:33:32.997Z,58.60
2018-03-18T02:36:00.740Z,59.70
2018-03-18T02:38:28.609Z,59.00
2018-03-18T02:40:57.632Z,59.00
2018-03-18T02:43:26.255Z,59.50
2018-03-18T02:45:54.089Z,60.20
2018-03-18T02:48:22.642Z,62.20
2018-03-18T02:50:50.350Z,62.10
2018-03-18T02:53:18.029Z,62.20
2018-03-18T02:55:46.115Z,62.50
2018-03-18T02:58:13.788Z,63.10
2018-03-18T03:00:41.476Z,64.20
2018-03-18T03:03:09.926Z,64.60
2018-03-18T03:05:37.633Z,64.60
2018-03-18T03:08:06.069Z,65.70
2018-03-18T03:10:33.760Z,65.50
2018-03-18T03:13:01.475Z,66.90
2018-03-18T03:15:29.561Z,66.80
2018-03-18T03:17:57.278Z,66.90
2018-03-18T03:20:25.386Z,66.50
2018-03-18T03:22:54.010Z,66.50
2018-03-18T03:25:22.148Z,67.10
2018-03-18T03:27:49.948Z,66.40
2018-03-18T03:30:17.636Z,66.50
2018-03-18T03:32:45.761Z,65.30
2018-03-18T03:35:14.182Z,66.80
2018-03-18T03:37:41.853Z,65.80
2018-03-18T03:40:09.473Z,65.70
2018-03-18T03:42:37.586Z,66.10
2018-03-18T03:45:05.311Z,65.90
2018-03-18T03:47:34.009Z,66.50
2018-03-18T03:50:02.527Z,67.00
2018-03-18T03:52:30.672Z,67.10
2018-03-18T03:54:59.182Z,67.10
2018-03-18T03:57:26.892Z,67.20
2018-03-18T03:59:56.234Z,67.20
2018-03-18T04:02:24.352Z,67.40
2018-03-18T04:04:52.040Z,67.50
2018-03-18T04:07:20.631Z,65.70
2018-03-18T04:09:48.293Z,65.50
2018-03-18T04:12:16.723Z,66.40
2018-03-18T04:14:45.232Z,65.10
2018-03-18T04:17:13.281Z,63.80
2018-03-18T04:19:41.169Z,63.80
2018-03-18T04:22:08.841Z,63.90
2018-03-18T04:24:36.954Z,64.00
2018-03-18T04:27:05.660Z,64.10
2018-03-18T04:29:33.336Z,64.20
2018-03-18T04:32:01.444Z,65.70
2018-03-18T04:34:30.227Z,66.00
2018-03-18T04:36:57.952Z,66.10
2018-03-18T04:39:25.625Z,66.50
2018-03-18T04:41:54.915Z,66.80
2018-03-18T04:44:22.564Z,66.70
2018-03-18T04:46:50.434Z,67.20
2018-03-18T04:49:18.085Z,68.20
2018-03-18T04:51:46.212Z,68.20
2018-03-18T04:54:14.808Z,68.40
2018-03-18T04:56:42.555Z,68.50
2018-03-18T04:59:11.056Z,68.80
2018-03-18T05:01:39.158Z,68.30
2018-03-18T05:04:07.695Z,69.50
2018-03-18T05:06:36.241Z,69.20
2018-03-18T05:09:05.294Z,69.50
2018-03-18T05:11:33.801Z,69.60
2018-03-18T05:14:01.521Z,69.50
2018-03-18T05:16:29.952Z,69.60
2018-03-18T05:18:58.274Z,69.70
2018-03-18T05:21:27.655Z,71.10
2018-03-18T05:23:55.332Z,70.20
2018-03-18T05:26:23.043Z,71.20
2018-03-18T05:28:54.131Z,71.70
2018-03-18T05:31:23.398Z,72.40
2018-03-18T05:33:51.079Z,72.60
2018-03-18T05:36:19.219Z,72.80
2018-03-18T05:38:47.358Z,73.00
2018-03-18T05:41:15.110Z,72.60
2018-03-18T05:43:43.263Z,72.60
2018-03-18T05:46:10.954Z,72.30
2018-03-18T05:48:38.711Z,71.20
2018-03-18T05:51:07.191Z,71.40
2018-03-18T05:53:35.079Z,70.70
2018-03-18T05:56:04.333Z,70.90
2018-03-18T05:58:32.427Z,70.80
2018-03-18T06:01:00.895Z,70.80
2018-03-18T06:03:29.065Z,71.10
2018-03-18T06:05:57.282Z,71.90
2018-03-18T06:08:26.733Z,72.30
2018-03-18T06:10:54.430Z,71.70
2018-03-18T06:13:22.619Z,71.90
2018-03-18T06:15:50.319Z,72.60
2018-03-18T06:18:20.741Z,72.70
2018-03-18T06:20:48.911Z,72.30
2018-03-18T06:23:17.605Z,73.10
2018-03-18T06:25:47.123Z,73.80
2018-03-18T06:28:15.162Z,73.70
2018-03-18T06:30:43.696Z,73.30
2018-03-18T06:33:11.724Z,73.20
2018-03-18T06:35:39.434Z,72.80
2018-03-18T06:38:07.927Z,72.10
2018-03-18T06:40:35.628Z,71.30
2018-03-18T06:43:04.271Z,71.80
2018-03-18T06:45:31.990Z,71.90
2018-03-18T06:48:00.655Z,71.20
2018-03-18T06:50:29.242Z,71.30
2018-03-18T06:52:57.342Z,71.40
2018-03-18T06:55:25.906Z,70.70
2018-03-18T06:57:53.647Z,70.30
2018-03-18T07:00:22.055Z,70.20
2018-03-18T07:02:50.754Z,69.20
2018-03-18T07:05:18.454Z,68.50
2018-03-18T07:07:46.143Z,68.60
2018-03-18T07:10:13.870Z,67.50
2018-03-18T07:12:41.608Z,64.50
2018-03-18T07:15:09.707Z,62.10
2018-03-18T07:17:37.819Z,61.60
2018-03-18T07:20:05.593Z,60.60
2018-03-18T07:22:34.071Z,61.40
2018-03-18T07:25:01.803Z,60.20
2018-03-18T07:27:29.927Z,60.30
2018-03-18T07:29:57.583Z,61.60
2018-03-18T07:32:25.239Z,58.80
2018-03-18T07:34:52.926Z,60.30
2018-03-18T07:37:21.041Z,60.50
2018-03-18T07:39:49.770Z,60.50
2018-03-18T07:42:18.390Z,57.90
2018-03-18T07:44:46.216Z,58.40
2018-03-18T07:47:15.040Z,58.70
2018-03-18T07:49:43.516Z,57.40
2018-03-18T07:52:11.577Z,58.70
2018-03-18T07:54:40.206Z,59.20
2018-03-18T07:57:08.357Z,59.40
2018-03-18T07:59:36.861Z,58.90
2018-03-18T08:02:04.607Z,59.00
2018-03-18T08:04:32.776Z,58.30
2018-03-18T08:07:01.697Z,57.10
2018-03-18T08:09:30.264Z,57.80
2018-03-18T08:11:58.812Z,56.90
2018-03-18T08:14:26.541Z,57.60
2018-03-18T08:16:55.101Z,57.50
2018-03-18T08:19:23.659Z,58.70
2018-03-18T08:21:52.205Z,57.30
2018-03-18T08:24:20.870Z,57.00
2018-03-18T08:26:49.403Z,56.40
2018-03-18T08:29:17.080Z,57.90
2018-03-18T08:31:44.769Z,57.60
2018-03-18T08:34:14.928Z,58.30
2018-03-18T08:36:42.680Z,57.30
2018-03-18T08:39:10.747Z,55.90
2018-03-18T08:41:39.223Z,56.60
2018-03-18T08:44:06.870Z,56.90
2018-03-18T08:46:35.060Z,56.80
2018-03-18T08:49:04.188Z,56.00
2018-03-18T08:51:31.915Z,58.00
2018-03-18T08:53:59.629Z,55.00
2018-03-18T08:56:27.776Z,56.90
2018-03-18T09:01:25.026Z,56.10
2018-03-18T09:03:52.804Z,54.10
2018-03-18T09:06:22.193Z,57.00
2018-03-18T09:08:50.660Z,55.40
2018-03-18T09:11:18.347Z,56.50
2018-03-18T09:13:46.810Z,56.80
2018-03-18T09:16:15.032Z,55.40
2018-03-18T09:18:42.787Z,56.80
2018-03-18T09:21:10.884Z,56.60
2018-03-18T09:23:39.035Z,54.80
2018-03-18T09:26:08.345Z,56.00
2018-03-18T09:28:36.123Z,56.70
2018-03-18T09:31:04.234Z,55.20
2018-03-18T09:33:32.022Z,55.60
2018-03-18T09:36:01.231Z,54.90
2018-03-18T09:38:32.324Z,55.60
2018-03-18T09:41:01.286Z,56.90
2018-03-18T09:43:31.140Z,56.50
2018-03-18T09:45:58.977Z,56.00
2018-03-18T09:48:27.646Z,55.30
2018-03-18T09:50:55.426Z,56.00
2018-03-18T09:53:24.110Z,54.90
2018-03-18T09:55:54.689Z,56.30
2018-03-18T09:58:24.288Z,56.90
2018-03-18T10:00:52.524Z,56.10
2018-03-18T10:03:22.499Z,55.30
2018-03-18T10:05:51.524Z,55.90
2018-03-18T10:08:25.824Z,55.00
2018-03-18T10:10:53.656Z,57.10
2018-03-18T10:13:23.943Z,57.00
2018-03-18T10:15:54.689Z,56.10
2018-03-18T10:18:24.532Z,55.30
2018-03-18T10:20:55.412Z,55.60
2018-03-18T10:23:25.162Z,54.60
2018-03-18T10:25:55.027Z,55.20
2018-03-18T10:28:25.607Z,54.80
2018-03-18T10:35:52.733Z,56.40
2018-03-18T10:38:20.511Z,57.00
2018-03-18T10:40:48.302Z,55.90
2018-03-18T10:43:17.573Z,54.90
2018-03-18T10:45:46.383Z,54.60
2018-03-18T10:48:14.389Z,54.90
2018-03-18T10:50:44.181Z,55.00
2018-03-18T10:53:12.582Z,55.60
2018-03-18T10:55:40.976Z,54.00
2018-03-18T10:58:11.078Z,55.00
2018-03-18T11:00:44.617Z,57.10
2018-03-18T11:03:13.054Z,55.10
2018-03-18T11:05:40.851Z,54.80
2018-03-18T11:08:08.579Z,54.50
2018-03-18T11:10:37.904Z,54.60
2018-03-18T11:13:06.486Z,56.50
2018-03-18T11:15:35.333Z,55.60
2018-03-18T11:18:04.306Z,55.70
2018-03-18T11:20:32.058Z,56.00
2018-03-18T11:22:59.972Z,53.90
2018-03-18T11:25:28.430Z,53.10
2018-03-18T11:27:56.163Z,56.50
2018-03-18T11:30:23.859Z,54.60
2018-03-18T11:32:52.879Z,53.90
2018-03-18T11:35:21.771Z,53.50
2018-03-18T11:37:49.509Z,54.30
2018-03-18T11:40:17.626Z,52.80
2018-03-18T11:42:46.246Z,54.80
2018-03-18T11:45:14.563Z,53.30
2018-03-18T11:47:42.705Z,54.20
2018-03-18T11:52:40.577Z,52.60
2018-03-18T11:55:09.063Z,52.90
2018-03-18T12:00:08.096Z,53.40
2018-03-18T12:02:36.656Z,51.20
2018-03-18T12:05:05.815Z,51.90
2018-03-18T12:07:33.543Z,53.10
2018-03-18T12:10:01.726Z,54.00
2018-03-18T12:12:30.574Z,50.20
2018-03-18T12:14:58.461Z,49.80
2018-03-18T12:17:28.674Z,52.30
2018-03-18T12:19:57.514Z,53.00
2018-03-18T12:22:26.404Z,51.60
2018-03-18T12:24:55.717Z,51.60
2018-03-18T12:27:24.638Z,51.20
2018-03-18T12:29:52.948Z,50.30
2018-03-18T12:32:21.060Z,49.00
2018-03-18T12:34:49.892Z,50.20
2018-03-18T12:37:17.706Z,50.70
2018-03-18T12:39:58.687Z,54.30
2018-03-18T12:42:38.702Z,49.80
2018-03-18T12:47:36.423Z,48.90
2018-03-18T12:50:05.329Z,51.30
2018-03-18T12:52:33.051Z,52.10
2018-03-18T12:55:01.486Z,53.20
2018-03-18T12:57:29.277Z,49.20
2018-03-18T12:59:56.954Z,48.90
2018-03-18T13:04:54.436Z,50.00
2018-03-18T13:07:22.198Z,49.60
2018-03-18T13:09:49.964Z,51.80
2018-03-18T13:12:18.171Z,50.40
2018-03-18T13:14:45.942Z,48.60
2018-03-18T13:19:42.946Z,50.70
2018-03-18T13:22:10.664Z,49.90
2018-03-18T13:24:38.484Z,49.40
2018-03-18T13:27:06.302Z,48.60
2018-03-18T13:29:34.031Z,48.40
2018-03-18T13:32:02.536Z,48.50
2018-03-18T13:34:30.335Z,50.40
2018-03-18T13:36:58.103Z,49.40
2018-03-18T13:39:25.775Z,49.70
2018-03-18T13:41:53.932Z,50.20
2018-03-18T13:44:23.869Z,51.70
2018-03-18T13:46:53.095Z,49.00
2018-03-18T13:49:21.618Z,48.10
2018-03-18T13:51:51.245Z,50.30
2018-03-18T13:54:18.916Z,49.00
2018-03-18T13:56:46.677Z,48.60
2018-03-18T13:59:14.385Z,47.00
2018-03-18T14:01:42.578Z,50.10
2018-03-18T14:04:11.513Z,48.50
2018-03-18T14:06:39.288Z,48.20
2018-03-18T14:09:07.772Z,47.10
2018-03-18T14:11:35.566Z,49.40
2018-03-18T14:14:03.214Z,47.50
2018-03-18T14:16:30.991Z,47.50
2018-03-18T14:18:59.640Z,48.30
2018-03-18T14:21:27.542Z,48.70
2018-03-18T14:26:24.871Z,47.60
2018-03-18T14:28:52.742Z,47.10
2018-03-18T14:31:20.500Z,47.90
2018-03-18T14:33:48.568Z,47.70
2018-03-18T14:36:17.964Z,48.40
2018-03-18T14:38:45.786Z,47.10
2018-03-18T14:41:14.233Z,47.80
2018-03-18T14:43:42.095Z,47.40
2018-03-18T14:46:10.197Z,45.80
2018-03-18T14:48:38.424Z,47.90
2018-03-18T14:51:06.192Z,48.50
2018-03-18T14:56:04.156Z,50.40
2018-03-18T14:58:32.617Z,47.60
2018-03-18T15:01:01.088Z,48.90
2018-03-18T15:03:29.557Z,48.20
2018-03-18T15:05:58.143Z,47.90
2018-03-18T15:08:25.899Z,47.50
2018-03-18T15:10:53.574Z,46.20
2018-03-18T15:13:22.216Z,48.70
2018-03-18T15:15:49.889Z,47.50
2018-03-18T15:18:19.450Z,48.50
2018-03-18T15:20:47.614Z,48.20
2018-03-18T15:23:15.858Z,48.70
2018-03-18T15:25:44.186Z,50.30
2018-03-18T15:28:12.330Z,48.40
2018-03-18T15:30:41.611Z,47.80
2018-03-18T15:33:09.759Z,48.50
2018-03-18T15:35:38.905Z,48.10
2018-03-18T15:38:06.991Z,50.40
2018-03-18T15:40:34.769Z,49.10
2018-03-18T15:43:02.454Z,48.30
2018-03-18T15:45:30.166Z,49.60
2018-03-18T15:47:57.846Z,47.60
2018-03-18T15:50:26.179Z,47.50
2018-03-18T15:52:55.461Z,48.10
2018-03-18T15:55:23.906Z,50.00
2018-03-18T15:57:51.538Z,48.00
2018-03-18T16:00:19.684Z,48.70
2018-03-18T16:02:48.178Z,48.60
2018-03-18T16:05:16.885Z,47.00
2018-03-18T16:07:45.553Z,48.60
2018-03-18T16:10:14.890Z,48.20
2018-03-18T16:12:43.074Z,48.00
2018-03-18T16:15:10.851Z,48.00
2018-03-18T16:17:39.321Z,48.00
2018-03-18T16:20:07.081Z,46.90
2018-03-18T16:22:34.949Z,47.60
2018-03-18T16:25:02.786Z,48.60
2018-03-18T16:27:30.907Z,46.40
2018-03-18T16:35:07.005Z,47.20
2018-03-18T16:42:35.536Z,48.50
2018-03-18T16:45:03.516Z,48.00
2018-03-18T16:50:07.456Z,50.10
2018-03-18T16:52:35.898Z,47.70
2018-03-18T16:55:04.693Z,49.90
2018-03-18T17:02:31.105Z,49.00
2018-03-18T17:04:58.875Z,47.40
2018-03-18T17:07:26.574Z,46.20
2018-03-18T17:09:55.491Z,47.70
2018-03-18T17:12:24.773Z,48.60
2018-03-18T17:14:53.617Z,48.20
2018-03-18T17:17:22.129Z,47.10
2018-03-18T17:19:50.689Z,47.50
2018-03-18T17:22:18.910Z,48.60
2018-03-18T17:24:51.518Z,46.50
2018-03-18T17:27:25.298Z,47.10
2018-03-18T17:29:53.699Z,47.00
2018-03-18T17:32:31.581Z,46.90
2018-03-18T17:35:00.217Z,46.30
2018-03-18T17:37:27.994Z,47.50
2018-03-18T17:39:55.682Z,46.90
2018-03-18T17:42:23.347Z,46.80
2018-03-18T17:45:02.696Z,46.00
2018-03-18T17:47:42.992Z,48.00
2018-03-18T17:53:25.700Z,46.30
2018-03-18T17:56:05.778Z,47.80
2018-03-18T17:58:34.278Z,47.00
2018-03-18T18:03:31.098Z,46.70
2018-03-18T18:05:58.838Z,47.80
2018-03-18T18:08:27.265Z,47.20
2018-03-18T18:10:55.040Z,46.70
2018-03-18T18:13:24.457Z,47.20
2018-03-18T18:15:52.248Z,46.60
2018-03-18T18:18:20.446Z,46.70
2018-03-18T18:20:48.223Z,47.20
2018-03-18T18:23:18.075Z,47.10
2018-03-18T18:25:46.312Z,46.20
2018-03-18T18:28:14.062Z,46.00
2018-03-18T18:33:13.061Z,46.20
2018-03-18T18:38:11.095Z,47.00
2018-03-18T18:40:39.978Z,47.00
2018-03-18T18:43:08.498Z,47.60
2018-03-18T18:48:08.273Z,47.70
2018-03-18T18:53:05.128Z,46.30
2018-03-18T18:55:32.944Z,47.80
2018-03-18T19:00:30.767Z,48.60
2018-03-18T19:03:00.023Z,46.80
2018-03-18T19:05:28.174Z,46.70
2018-03-18T19:07:56.921Z,45.30
2018-03-18T19:10:25.581Z,45.50
2018-03-18T19:12:54.334Z,45.80
2018-03-18T19:15:22.497Z,44.90
2018-03-18T19:17:51.058Z,45.90
2018-03-18T19:20:19.229Z,43.30
2018-03-18T19:22:54.422Z,43.50
2018-03-18T19:25:22.541Z,45.50
2018-03-18T19:27:50.390Z,44.80
2018-03-18T19:30:18.920Z,45.20
2018-03-18T19:32:48.179Z,46.70
2018-03-18T19:35:16.757Z,46.80
2018-03-18T19:37:45.049Z,45.10
2018-03-18T19:40:13.276Z,44.70
2018-03-18T19:42:41.015Z,44.50
2018-03-18T19:45:09.911Z,44.30
2018-03-18T19:47:38.077Z,45.00
2018-03-18T19:50:06.416Z,43.60
2018-03-18T19:52:34.309Z,43.00
2018-03-18T19:55:02.228Z,45.00
2018-03-18T19:57:30.405Z,45.90
2018-03-18T19:59:58.963Z,45.10
2018-03-18T20:02:26.613Z,45.60
2018-03-18T20:04:54.710Z,46.00
2018-03-18T20:07:22.441Z,43.30
2018-03-18T20:09:50.213Z,44.40
2018-03-18T20:12:17.931Z,44.30
2018-03-18T20:14:46.850Z,42.80
2018-03-18T20:17:15.024Z,43.20
2018-03-18T20:19:42.771Z,43.80
2018-03-18T20:22:14.668Z,43.10
2018-03-18T20:24:42.424Z,42.80
2018-03-18T20:27:10.634Z,42.50
2018-03-18T20:29:38.856Z,43.20
2018-03-18T20:32:07.289Z,42.40
2018-03-18T20:34:36.167Z,42.50
2018-03-18T20:39:33.303Z,42.90
2018-03-18T20:42:01.092Z,42.40
2018-03-18T20:46:58.456Z,44.00
2018-03-18T20:49:26.675Z,42.70
2018-03-18T20:51:56.135Z,43.80
2018-03-18T20:54:24.028Z,43.40
2018-03-18T20:56:53.858Z,44.10
2018-03-18T20:59:22.365Z,44.20
2018-03-18T21:01:52.114Z,43.70
2018-03-18T21:04:20.204Z,43.80
2018-03-18T21:06:48.950Z,43.00
2018-03-18T21:09:17.005Z,44.40
2018-03-18T21:11:45.544Z,44.20
2018-03-18T21:14:15.716Z,43.80
2018-03-18T21:16:49.834Z,43.60
2018-03-18T21:19:18.029Z,43.80
2018-03-18T21:21:47.036Z,43.70
2018-03-18T21:24:16.102Z,44.20
2018-03-18T21:26:44.322Z,42.60
2018-03-18T21:29:12.226Z,44.00
2018-03-18T21:31:41.025Z,43.40
2018-03-18T21:34:11.293Z,44.70
2018-03-18T21:36:41.373Z,42.60
2018-03-18T21:41:38.608Z,44.50
2018-03-18T21:44:06.307Z,43.90
2018-03-18T21:46:34.554Z,43.40
2018-03-18T21:49:02.437Z,43.90
2018-03-18T21:51:30.944Z,43.60
2018-03-18T21:53:59.538Z,43.90
2018-03-18T21:59:02.054Z,44.30
2018-03-18T22:01:31.058Z,44.50
2018-03-18T22:08:57.043Z,43.40
2018-03-18T22:11:25.423Z,42.90
2018-03-18T22:13:54.401Z,43.90
2018-03-18T22:16:22.621Z,44.70
2018-03-18T22:18:51.843Z,45.60
2018-03-18T22:21:19.971Z,45.50
2018-03-18T22:23:49.301Z,43.10
2018-03-18T22:26:17.076Z,46.30
2018-03-18T22:33:45.281Z,46.00
2018-03-18T22:36:13.839Z,44.90
2018-03-18T22:38:41.817Z,43.90
2018-03-18T22:41:10.682Z,43.80
2018-03-18T22:43:38.508Z,44.10
2018-03-18T22:46:06.742Z,44.80
2018-03-18T22:48:34.879Z,44.60
2018-03-18T22:51:04.760Z,45.10
2018-03-18T22:53:34.326Z,45.00
2018-03-18T22:58:33.238Z,43.90
2018-03-18T23:01:02.580Z,45.70
2018-03-18T23:06:01.009Z,44.80
2018-03-18T23:08:29.186Z,45.00
2018-03-18T23:10:57.604Z,44.60
2018-03-18T23:13:25.784Z,45.90
2018-03-18T23:15:53.957Z,45.80
2018-03-18T23:18:22.478Z,45.40
2018-03-18T23:20:50.240Z,44.30
2018-03-18T23:23:18.441Z,43.80
2018-03-18T23:25:46.995Z,44.60
2018-03-18T23:28:16.427Z,44.70
2018-03-18T23:30:46.322Z,45.30
2018-03-18T23:33:15.176Z,44.30
2018-03-18T23:35:43.225Z,43.40
2018-03-18T23:40:40.845Z,45.10
2018-03-18T23:43:09.452Z,45.80
2018-03-18T23:45:38.022Z,43.70
2018-03-18T23:48:06.206Z,46.70
2018-03-18T23:50:34.758Z,44.80
2018-03-18T23:53:02.943Z,45.20
2018-03-18T23:55:31.027Z,43.50
2018-03-18T23:57:59.906Z,46.30
